NY/NJ Local METAR Reports

 

KNYC - NYC/Central Park, NY, USA
Distance from Hoboken: NE 4mi, 7km
Updated: 02/20/2020 12:51am
Clear
Clear
 Wind from NNW
Wind: NNW 6 mph , 9 km/h
Temperature: 32°F , 0°C
Wind Chill: 26°F , -3°C
Dew Point: 16°F , -9°C
Humidity: 51%
Barometer: 30.42 inHg , 1030.1 hPa
Clouds: Clear
Visibility: 10 miles , 16 km
2020/02/20 05:51 KNYC 200551Z AUTO 34005KT 10SM CLR 00/M09 A3042 RMK AO2 SLP294 T00001094 10044 20000 53008
KEWR - Newark, NJ, USA
Distance from Hoboken: WSW 8mi, 13km
Updated: 02/20/2020 12:51am
Mostly cloudy
Mostly cloudy
 Wind from NNW
Wind: NNW 9 mph , 15 km/h
Temperature: 32°F , 0°C
Wind Chill: 24°F , -4°C
Dew Point: 18°F , -8°C
Humidity: 55%
Barometer: 30.42 inHg , 1030.1 hPa
Clouds: Mostly cloudy
Visibility: 10 miles , 16 km
Cloud details: Mostly cloudy 21000 ft
2020/02/20 05:51 KEWR 200551Z 34008KT 10SM BKN210 00/M08 A3042 RMK AO2 SLP298 T00001083 10050 20000 53010
 
KLGA - NYC/La Guardia, NY, USA
Distance from Hoboken: ENE 8mi, 13km
Updated: 02/20/2020 12:51am
Mostly cloudy
Mostly cloudy
 Wind from NW
Wind: NW 17 mph , 28 km/h
Temperature: 32°F , 0°C
Wind Chill: 21°F , -6°C
Dew Point: 16°F , -9°C
Humidity: 51%
Barometer: 30.41 inHg , 1029.8 hPa
Clouds: Mostly cloudy
Visibility: 10 miles , 16 km
Cloud details: Mostly cloudy 20000 ft
2020/02/20 05:51 KLGA 200551Z 31015KT 10SM BKN200 00/M09 A3041 RMK AO2 SLP297 T00001094 10044 20000 53010
KTEB - Teterboro, NJ, USA
Distance from Hoboken: N 9mi, 14km
Updated: 02/20/2020 12:51am
Clear
Clear
 Wind from N
Wind: N 8 mph , 13 km/h
Temperature: 30°F , -1°C
Wind Chill: 22°F , -6°C
Dew Point: 16°F , -9°C
Humidity: 55%
Barometer: 30.41 inHg , 1029.8 hPa
Clouds: Clear
Visibility: 10 miles , 16 km
2020/02/20 05:51 KTEB 200551Z 35007KT 10SM CLR M01/M09 A3041 RMK AO2 SLP297 T10061089 10033 21006 53010
 
KJFK - NYC/Jfk Arpt, NY, USA
Distance from Hoboken: ESE 16mi, 25km
Updated: 02/20/2020 12:51am
Mostly cloudy
Mostly cloudy
 Wind from NNW
Wind: NNW 15 mph , 24 km/h
Temperature: 32°F , 0°C
Wind Chill: 22°F , -6°C
Dew Point: 18°F , -8°C
Humidity: 55%
Barometer: 30.41 inHg , 1029.8 hPa
Clouds: Mostly cloudy
Visibility: 10 miles , 16 km
Cloud details: Mostly cloudy 20000 ft
Mostly cloudy 25000 ft
2020/02/20 05:51 KJFK 200551Z 34013KT 10SM BKN200 BKN250 00/M08 A3041 RMK AO2 SLP298 T00001083 10044 20000 53009 $
KCDW - Caldwell, NJ, USA
Distance from Hoboken: NW 16mi, 26km
Updated: 02/20/2020 12:53am
Clear
Clear
 Wind from NNW
Wind: NNW 5 mph , 7 km/h
Temperature: 32°F , 0°C
Wind Chill: 27°F , -3°C
Dew Point: 16°F , -9°C
Humidity: 51%
Barometer: 30.42 inHg , 1030.1 hPa
Clouds: Clear
Visibility: 10 miles , 16 km
2020/02/20 05:53 KCDW 200553Z AUTO 33004KT 10SM CLR 00/M09 A3042 RMK AO2 SLP306 T00001089 10039 20000 53009
 
KMMU - Morristown Muni, NJ, USA
Distance from Hoboken: W 20mi, 33km
Updated: 02/20/2020 12:55am
Clear
Clear
 Wind from NW
Wind: NW 3 mph , 6 km/h
Temperature: 30°F , -1°C
Dew Point: 18°F , -8°C
Humidity: 59%
Barometer: 30.41 inHg , 1029.8 hPa
Clouds: Clear
Visibility: 10 miles , 16 km
2020/02/20 05:55 KMMU 200555Z AUTO 32003KT 10SM CLR M01/M08 A3041 RMK AO2
KHPN - White Plains, NY, USA
Distance from Hoboken: NE 28mi, 46km
Updated: 02/20/2020 12:56am
Clear
Clear
 Wind from NW
Wind: NW 13 mph , 20 km/h
Temperature: 28°F , -2°C
Wind Chill: 17°F , -8°C
Dew Point: 12°F , -11°C
Humidity: 51%
Barometer: 30.37 inHg , 1028.4 hPa
Clouds: Clear
Visibility: 10 miles , 16 km
2020/02/20 05:56 KHPN 200556Z 31011KT 10SM CLR M02/M11 A3037 RMK AO2 SLP291 T10171111 10017 21022 53007
 
KFRG - Farmingdale, NY, USA
Distance from Hoboken: E 32mi, 52km
Updated: 02/20/2020 12:53am
Clear
Clear
 Wind from N
Wind: N 7 mph , 11 km/h
Temperature: 34°F , 1°C
Wind Chill: 28°F , -2°C
Dew Point: 16°F , -9°C
Humidity: 48%
Barometer: 30.39 inHg , 1029.1 hPa
Clouds: Clear
Visibility: 10 miles , 16 km
2020/02/20 05:53 KFRG 200553Z AUTO 35006KT 10SM CLR 01/M09 A3039 RMK AO2 SLP293 T00061094 10044 20000 52008
KSMQ - Somerville, NJ, USA
Distance from Hoboken: WSW 34mi, 55km
Updated: 02/20/2020 12:53am
Clear
Clear
 Wind from calm
Wind: Calm
Temperature: 27°F , -3°C
Dew Point: 19°F , -7°C
Humidity: 74%
Barometer: 30.40 inHg , 1029.5 hPa
Clouds: Clear
Visibility: 10 miles , 16 km
2020/02/20 05:53 KSMQ 200553Z AUTO 00000KT 10SM CLR M03/M07 A3040 RMK AO2 SLP296 T10331067 10044 21039 53010 $
 
KBLM - Belmar/Farmdale, NJ, USA
Distance from Hoboken: S 40mi, 64km
Updated: 02/20/2020 12:56am
Clear
Clear
 Wind from NW
Wind: NW 6 mph , 9 km/h
Temperature: 30°F , -1°C
Wind Chill: 24°F , -4°C
Dew Point: 19°F , -7°C
Humidity: 64%
Barometer: 30.42 inHg , 1030.1 hPa
Clouds: Clear
Visibility: 10 miles , 16 km
2020/02/20 05:56 KBLM 200556Z AUTO 32005KT 10SM CLR M01/M07 A3042 RMK AO2 SLP302 T10111072 10044 21011 53013 FZRANO
K12N - Andover, NJ, USA
Distance from Hoboken: WNW 41mi, 67km
Updated: 02/20/2020 12:54am

 Wind from calm
Wind: Calm
Temperature: 27°F , -3°C
Dew Point: 19°F , -7°C
Humidity: 74%
Barometer: 30.39 inHg , 1029.1 hPa
2020/02/20 05:54 K12N 200554Z AUTO 00000KT M03/M07 A3039 RMK AO1 SLP302 T10281072 10017 21033 53007
 
KFWN - Sussex, NJ, USA
Distance from Hoboken: NW 45mi, 72km
Updated: 02/20/2020 12:53am
Clear
Clear
 Wind from calm
Wind: Calm
Temperature: 25°F , -4°C
Dew Point: 16°F , -9°C
Humidity: 69%
Barometer: 30.39 inHg , 1029.1 hPa
Clouds: Clear
Visibility: 10 miles , 16 km
2020/02/20 05:53 KFWN 200553Z AUTO 00000KT 10SM CLR M04/M09 A3039 RMK AO2 SLP296 T10391089 10006 21050 53006
KISP - Islip, NY, USA
Distance from Hoboken: E 49mi, 79km
Updated: 02/20/2020 12:56am
Clear
Clear
 Wind from NNW
Wind: NNW 13 mph , 20 km/h
Temperature: 30°F , -1°C
Wind Chill: 20°F , -7°C
Dew Point: 16°F , -9°C
Humidity: 55%
Barometer: 30.38 inHg , 1028.8 hPa
Clouds: Clear
Visibility: 10 miles , 16 km
2020/02/20 05:56 KISP 200556Z AUTO 33011KT 10SM CLR M01/M09 A3038 RMK AO2 SLP288 T10061089 10033 21011 53007